Time;durP1;ratioP1;P1;durP2;ratioP2;P2;SDS_P1;SDS_P2;PMS_P1;PMS_P2;Temp;Humidity;BMP_temperature;BMP_pressure;BME280_temperature;BME280_humidity;BME280_pressure;Samples;Min_cycle;Max_cycle;Signal;HPM_P1;HPM_P2
2022/08/23 00:00:59;;;;;;;;;;;15.80;99.90;;;;;;5038659;28;20040;-76
2022/08/23 00:03:25;;;;;;;0.40;0.40;;;15.80;99.90;;;;;;5050313;28;20003;-75
2022/08/23 00:05:51;;;;;;;0.30;0.30;;;15.70;99.90;;;;;;5033352;28;20045;-74
2022/08/23 00:08:17;;;;;;;;;;;15.70;99.90;;;;;;5049869;28;20075;-78
2022/08/23 00:10:45;;;;;;;0.20;0.20;;;15.70;99.90;;;;;;5049627;28;20336;-75
2022/08/23 00:13:11;;;;;;;0.28;0.28;;;15.60;99.90;;;;;;5030300;28;20127;-76
2022/08/23 00:15:37;;;;;;;0.22;0.22;;;15.60;99.90;;;;;;5016033;28;20467;-76
2022/08/23 00:18:02;;;;;;;;;;;15.60;99.90;;;;;;5049832;28;20430;-77
2022/08/23 00:20:28;;;;;;;0.20;0.20;;;15.60;99.90;;;;;;5034523;28;20003;-74
2022/08/23 00:22:53;;;;;;;;;;;15.60;99.90;;;;;;5049370;28;20045;-77
2022/08/23 00:25:19;;;;;;;0.20;0.20;;;15.50;99.90;;;;;;5032028;28;19943;-78
2022/08/23 00:27:45;;;;;;;;;;;15.60;99.90;;;;;;5033429;28;20474;-74
2022/08/23 00:30:12;;;;;;;0.30;0.30;;;15.50;99.90;;;;;;5051977;28;19928;-75
2022/08/23 00:32:40;;;;;;;0.40;0.40;;;15.50;99.90;;;;;;5037621;28;20086;-75
2022/08/23 00:35:08;;;;;;;0.20;0.20;;;15.40;99.90;;;;;;5048938;28;20073;-76
2022/08/23 00:37:35;;;;;;;0.20;0.20;;;15.40;99.90;;;;;;5048665;28;20453;-76
2022/08/23 00:40:00;;;;;;;;;;;15.30;99.90;;;;;;5053871;28;20059;-75
2022/08/23 00:48:31;;;;;;;0.30;0.30;;;15.20;99.90;;;;;;5008460;28;20049;-76
2022/08/23 00:51:03;;;;;;;0.30;0.30;;;15.20;99.90;;;;;;5049800;28;20454;-77
2022/08/23 00:53:36;;;;;;;0.30;0.30;;;15.20;99.90;;;;;;5042949;28;20087;-76
2022/08/23 00:56:05;;;;;;;0.28;0.28;;;15.10;99.90;;;;;;5056661;28;20037;-75
2022/08/23 00:58:31;;;;;;;0.30;0.30;;;15.20;99.90;;;;;;5049217;28;20445;-77
2022/08/23 01:00:58;;;;;;;;;;;15.10;99.90;;;;;;5031768;28;20049;-75
2022/08/23 01:03:26;;;;;;;0.30;0.30;;;15.10;99.90;;;;;;5030176;28;19924;-75
2022/08/23 01:06:36;;;;;;;0.40;0.40;;;15.00;99.90;;;;;;5042737;28;20091;-74
2022/08/23 01:09:15;;;;;;;0.47;0.47;;;15.10;99.90;;;;;;4948008;29;20051;-75
2022/08/23 01:12:13;;;;;;;0.25;0.25;;;15.00;99.90;;;;;;5041468;28;20124;-74
2022/08/23 01:14:50;;;;;;;0.40;0.40;;;15.00;99.90;;;;;;5048888;28;20044;-75
2022/08/23 01:17:23;;;;;;;0.38;0.38;;;14.90;99.90;;;;;;5047830;28;20497;-74
2022/08/23 01:20:17;;;;;;;0.30;0.30;;;14.90;99.90;;;;;;5052448;28;20045;-78
2022/08/23 01:22:51;;;;;;;0.30;0.30;;;14.80;99.90;;;;;;5048192;28;20083;-74
2022/08/23 01:25:20;;;;;;;0.30;0.30;;;14.80;99.90;;;;;;5055297;28;20053;-76
2022/08/23 01:27:47;;;;;;;0.40;0.40;;;14.80;99.90;;;;;;5051478;28;20055;-74
2022/08/23 01:30:17;;;;;;;0.30;0.30;;;14.80;99.90;;;;;;5034496;28;20071;-78
2022/08/23 01:32:56;;;;;;;0.30;0.30;;;14.80;99.90;;;;;;5056348;28;20029;-74
2022/08/23 01:35:31;;;;;;;0.30;0.30;;;14.70;99.90;;;;;;5050776;28;20037;-77
2022/08/23 01:37:56;;;;;;;0.20;0.20;;;14.70;99.90;;;;;;5045727;28;20076;-77
2022/08/23 01:40:22;;;;;;;;;;;14.70;99.90;;;;;;5034380;28;20098;-75
2022/08/23 01:42:48;;;;;;;0.30;0.30;;;14.70;99.90;;;;;;5034369;28;19921;-74
2022/08/23 01:45:13;;;;;;;;;;;14.70;99.90;;;;;;5046014;28;20391;-76
2022/08/23 01:47:40;;;;;;;0.30;0.30;;;14.60;99.90;;;;;;5041737;28;19921;-79
2022/08/23 01:50:07;;;;;;;0.30;0.30;;;14.50;99.90;;;;;;5051573;28;20048;-76
2022/08/23 01:52:35;;;;;;;0.30;0.30;;;14.50;99.90;;;;;;5051366;28;20503;-75
2022/08/23 01:55:02;;;;;;;0.40;0.40;;;14.50;99.90;;;;;;5056607;28;20390;-79
2022/08/23 01:57:28;;;;;;;0.30;0.30;;;14.40;99.90;;;;;;5036168;28;20051;-76
2022/08/23 01:59:55;;;;;;;;;;;14.50;99.90;;;;;;5048196;28;20044;-78
2022/08/23 02:02:20;;;;;;;0.20;0.20;;;14.50;99.90;;;;;;5051982;28;19924;-74
2022/08/23 02:04:46;;;;;;;;;;;14.50;99.90;;;;;;5050047;28;20049;-75
2022/08/23 02:07:12;;;;;;;0.20;0.20;;;14.40;99.90;;;;;;5035725;28;20396;-77
2022/08/23 02:09:37;;;;;;;;;;;14.40;99.90;;;;;;5051449;28;20041;-76
2022/08/23 02:12:04;;;;;;;0.40;0.40;;;14.40;99.90;;;;;;5051350;28;19966;-77
2022/08/23 02:14:30;;;;;;;0.30;0.30;;;14.40;99.90;;;;;;5070213;28;20044;-75
2022/08/23 02:16:57;;;;;;;;;;;14.40;99.90;;;;;;5033345;28;20036;-77
2022/08/23 02:19:23;;;;;;;0.30;0.30;;;14.40;99.90;;;;;;5048973;28;19917;-78
2022/08/23 02:21:49;;;;;;;;;;;14.40;99.90;;;;;;5063120;28;20486;-77
2022/08/23 02:24:21;;;;;;;0.40;0.40;;;14.40;99.90;;;;;;5051730;28;19916;-78
2022/08/23 02:26:50;;;;;;;0.35;0.35;;;14.40;99.90;;;;;;5052058;28;20090;-76
2022/08/23 02:29:18;;;;;;;0.20;0.20;;;14.40;99.90;;;;;;5047750;28;20073;-74
2022/08/23 02:31:44;;;;;;;0.30;0.30;;;14.40;99.90;;;;;;5049383;28;20106;-75
2022/08/23 02:34:12;;;;;;;0.60;0.60;;;14.40;99.90;;;;;;5045887;28;20041;-74
2022/08/23 02:36:38;;;;;;;0.20;0.20;;;14.30;99.90;;;;;;5053688;28;20041;-78
2022/08/23 02:39:06;;;;;;;0.25;0.25;;;14.30;99.90;;;;;;5074519;28;20478;-82
2022/08/23 02:41:33;;;;;;;0.43;0.43;;;14.30;99.90;;;;;;5049276;28;20137;-77
2022/08/23 02:43:59;;;;;;;0.30;0.30;;;14.30;99.90;;;;;;5052713;28;20037;-76
2022/08/23 02:46:25;;;;;;;0.40;0.40;;;14.30;99.90;;;;;;5058894;28;20552;-75
2022/08/23 02:48:51;;;;;;;;;;;14.30;99.90;;;;;;5048755;28;20048;-76
2022/08/23 02:51:18;;;;;;;0.32;0.32;;;14.20;99.90;;;;;;5047996;28;19925;-76
2022/08/23 02:53:44;;;;;;;0.28;0.28;;;14.30;99.90;;;;;;5048703;28;20048;-78
2022/08/23 02:56:11;;;;;;;0.30;0.30;;;14.30;99.90;;;;;;5058325;28;20033;-78
2022/08/23 02:58:38;;;;;;;0.40;0.40;;;14.20;99.90;;;;;;5049668;28;20474;-75
2022/08/23 03:01:04;;;;;;;0.57;0.57;;;14.20;99.90;;;;;;5055394;28;20079;-78
2022/08/23 03:03:31;;;;;;;0.25;0.25;;;14.20;99.90;;;;;;5034016;28;20049;-81
2022/08/23 03:05:57;;;;;;;0.20;0.20;;;14.20;99.90;;;;;;5014995;28;20494;-76
2022/08/23 03:08:24;;;;;;;0.22;0.22;;;14.10;99.90;;;;;;5048429;28;20048;-75
2022/08/23 03:10:51;;;;;;;0.40;0.40;;;14.10;99.90;;;;;;5047665;28;20035;-76
2022/08/23 03:13:18;;;;;;;0.22;0.22;;;14.10;99.90;;;;;;5048086;28;20412;-76
2022/08/23 03:15:44;;;;;;;0.20;0.20;;;14.10;99.90;;;;;;5050032;28;20477;-76
2022/08/23 03:18:11;;;;;;;0.30;0.30;;;14.00;99.90;;;;;;5049993;28;20048;-76
2022/08/23 03:20:40;;;;;;;0.40;0.40;;;14.00;99.90;;;;;;5049544;28;20040;-75
2022/08/23 03:23:10;;;;;;;0.20;0.20;;;14.00;99.90;;;;;;5052393;28;20048;-76
2022/08/23 03:25:36;;;;;;;0.30;0.30;;;14.00;99.90;;;;;;5059158;28;20120;-76
2022/08/23 03:28:05;;;;;;;0.28;0.28;;;13.90;99.90;;;;;;5049213;28;20048;-77
2022/08/23 03:30:32;;;;;;;0.20;0.20;;;13.90;99.90;;;;;;5048377;28;20486;-77
2022/08/23 03:32:59;;;;;;;0.30;0.30;;;13.80;99.90;;;;;;5046274;28;20041;-76
2022/08/23 03:35:25;;;;;;;0.30;0.30;;;13.80;99.90;;;;;;5049220;28;20040;-78
2022/08/23 03:37:52;;;;;;;0.40;0.40;;;13.80;99.90;;;;;;5049635;28;20067;-76
2022/08/23 03:40:19;;;;;;;0.30;0.30;;;13.80;99.90;;;;;;5048127;28;20053;-75
2022/08/23 03:42:45;;;;;;;0.30;0.30;;;13.80;99.90;;;;;;5052424;28;20542;-77
2022/08/23 03:45:11;;;;;;;0.40;0.40;;;13.80;99.90;;;;;;5052195;28;20131;-76
2022/08/23 03:47:37;;;;;;;0.30;0.30;;;13.80;99.90;;;;;;5026347;28;20478;-74
2022/08/23 03:50:04;;;;;;;;;;;13.70;99.90;;;;;;5049633;28;20045;-75
2022/08/23 03:52:30;;;;;;;;;;;13.80;99.90;;;;;;5052750;28;19921;-78
2022/08/23 03:54:55;;;;;;;0.30;0.30;;;13.80;99.90;;;;;;5049482;28;20266;-77
2022/08/23 03:57:21;;;;;;;0.30;0.30;;;13.80;99.90;;;;;;5045388;28;20049;-76
2022/08/23 03:59:47;;;;;;;0.40;0.40;;;13.70;99.90;;;;;;5030733;28;20115;-76
2022/08/23 04:02:14;;;;;;;0.28;0.28;;;13.70;99.90;;;;;;5017361;28;20135;-75
2022/08/23 04:04:41;;;;;;;0.30;0.30;;;13.70;99.90;;;;;;5046738;28;20044;-77
2022/08/23 04:07:08;;;;;;;0.63;0.63;;;13.70;99.90;;;;;;5049686;28;20486;-77
2022/08/23 04:09:33;;;;;;;0.30;0.30;;;13.70;99.90;;;;;;5031827;28;20033;-76
2022/08/23 04:11:59;;;;;;;0.30;0.30;;;13.70;99.90;;;;;;5048023;28;21433;-76
2022/08/23 04:14:25;;;;;;;;;;;13.70;99.90;;;;;;5031745;28;20049;-78
2022/08/23 04:16:51;;;;;;;0.20;0.20;;;13.70;99.90;;;;;;5038836;28;20241;-75
2022/08/23 04:19:17;;;;;;;;;;;13.60;99.90;;;;;;5056505;28;20045;-73
2022/08/23 04:21:47;;;;;;;0.40;0.40;;;13.60;99.90;;;;;;5045137;28;19924;-75
2022/08/23 04:24:13;;;;;;;0.50;0.50;;;13.60;99.90;;;;;;5031906;28;20194;-73
2022/08/23 04:26:40;;;;;;;0.30;0.30;;;13.60;99.90;;;;;;5033285;28;20123;-72
2022/08/23 04:29:07;;;;;;;0.40;0.40;;;13.60;99.90;;;;;;5032706;28;20052;-73
2022/08/23 04:31:33;;;;;;;0.40;0.40;;;13.60;99.90;;;;;;5027136;28;20044;-74
2022/08/23 04:34:00;;;;;;;0.20;0.20;;;13.60;99.90;;;;;;5054497;28;20478;-73
2022/08/23 04:36:28;;;;;;;0.40;0.40;;;13.50;99.90;;;;;;5040298;28;20045;-72
2022/08/23 04:38:54;;;;;;;0.40;0.40;;;13.50;99.90;;;;;;5049140;28;20114;-74
2022/08/23 04:44:05;;;;;;;0.30;0.30;;;13.50;99.90;;;;;;5060235;28;20124;-74
2022/08/23 04:46:31;;;;;;;0.30;0.30;;;13.40;99.90;;;;;;5031696;28;20242;-75
2022/08/23 04:48:57;;;;;;;;;;;13.50;99.90;;;;;;5047605;28;20037;-75
2022/08/23 04:51:23;;;;;;;0.40;0.40;;;13.50;99.90;;;;;;5051466;28;19966;-76
2022/08/23 04:53:49;;;;;;;0.30;0.30;;;13.60;99.90;;;;;;5047893;28;20053;-74
2022/08/23 04:56:15;;;;;;;0.30;0.30;;;13.60;99.90;;;;;;5055890;28;20387;-74
2022/08/23 04:58:41;;;;;;;0.30;0.30;;;13.70;99.90;;;;;;5047148;28;20040;-74
2022/08/23 05:01:10;;;;;;;0.20;0.20;;;13.80;99.90;;;;;;5046506;28;20094;-75
2022/08/23 05:03:36;;;;;;;0.30;0.30;;;13.80;99.90;;;;;;5016528;28;20041;-74
2022/08/23 05:06:03;;;;;;;0.40;0.40;;;13.90;99.90;;;;;;5044018;28;20040;-74
2022/08/23 05:08:30;;;;;;;0.38;0.38;;;14.00;99.90;;;;;;5066774;28;20046;-75
2022/08/23 05:11:02;;;;;;;0.40;0.40;;;14.00;99.90;;;;;;5058054;28;20448;-75
2022/08/23 05:13:29;;;;;;;0.30;0.30;;;14.10;99.90;;;;;;5047622;28;20134;-74
2022/08/23 05:15:54;;;;;;;0.32;0.32;;;14.10;99.90;;;;;;5049138;28;20071;-73
2022/08/23 05:18:21;;;;;;;0.30;0.30;;;14.20;99.90;;;;;;5047754;28;20398;-74
2022/08/23 05:20:47;;;;;;;0.47;0.47;;;14.30;99.90;;;;;;5048911;28;20048;-74
2022/08/23 05:23:12;;;;;;;0.47;0.47;;;14.40;99.90;;;;;;5024201;28;20128;-75
2022/08/23 05:25:57;;;;;;;0.30;0.30;;;14.50;99.90;;;;;;5050850;28;20386;-74
2022/08/23 05:28:29;;;;;;;0.30;0.30;;;14.60;99.90;;;;;;5045219;28;20152;-73
2022/08/23 05:31:10;;;;;;;0.30;0.30;;;14.70;99.90;;;;;;5049748;28;20056;-73
2022/08/23 05:33:36;;;;;;;0.40;0.40;;;14.70;99.90;;;;;;5047002;28;20041;-74
2022/08/23 05:36:03;;;;;;;0.30;0.30;;;14.90;99.90;;;;;;5026999;28;20041;-72
2022/08/23 05:38:30;;;;;;;0.20;0.20;;;14.90;99.90;;;;;;5047702;28;20057;-72
2022/08/23 05:40:57;;;;;;;0.20;0.20;;;15.00;99.90;;;;;;5068321;28;21549;-72
2022/08/23 05:43:24;;;;;;;0.30;0.30;;;15.10;99.90;;;;;;5047723;28;20045;-73
2022/08/23 05:46:05;;;;;;;0.30;0.30;;;15.10;99.90;;;;;;5048745;28;20076;-73
2022/08/23 05:48:33;;;;;;;0.30;0.30;;;15.20;99.90;;;;;;5043854;28;20045;-73
2022/08/23 05:51:17;;;;;;;0.30;0.30;;;15.20;99.90;;;;;;5046571;28;20052;-73
2022/08/23 05:53:44;;;;;;;0.25;0.25;;;15.20;99.90;;;;;;5041045;28;20041;-73
2022/08/23 05:56:13;;;;;;;0.52;0.52;;;15.30;99.90;;;;;;5052180;28;20084;-72
2022/08/23 05:58:39;;;;;;;0.20;0.20;;;15.40;99.90;;;;;;5045419;28;20132;-73
2022/08/23 06:01:05;;;;;;;0.20;0.20;;;15.40;99.90;;;;;;5043894;28;20049;-73
2022/08/23 06:03:30;;;;;;;;;;;15.50;99.90;;;;;;5060960;28;20106;-72
2022/08/23 06:05:57;;;;;;;0.32;0.32;;;15.60;99.90;;;;;;5039479;28;19928;-72
2022/08/23 06:08:23;;;;;;;0.30;0.30;;;15.70;99.90;;;;;;5052191;28;20037;-72
2022/08/23 06:10:58;;;;;;;0.20;0.20;;;15.90;99.90;;;;;;5045115;28;20045;-73
2022/08/23 06:13:24;;;;;;;0.30;0.30;;;16.10;99.90;;;;;;5048689;28;20508;-73
2022/08/23 06:15:49;;;;;;;0.28;0.28;;;16.30;99.90;;;;;;5052201;28;20040;-72
2022/08/23 06:18:15;;;;;;;;;;;16.40;99.90;;;;;;5051536;28;20057;-72
2022/08/23 06:20:41;;;;;;;0.20;0.20;;;16.60;99.90;;;;;;5053001;28;19924;-72
2022/08/23 06:23:07;;;;;;;;;;;16.60;99.90;;;;;;5045167;28;20056;-73
2022/08/23 06:25:36;;;;;;;0.50;0.50;;;16.70;99.90;;;;;;5062331;28;19920;-73
2022/08/23 06:28:03;;;;;;;0.40;0.40;;;16.80;99.90;;;;;;5049138;28;20055;-73
2022/08/23 06:30:28;;;;;;;0.30;0.30;;;16.90;99.90;;;;;;5049172;28;20052;-72
2022/08/23 06:32:54;;;;;;;;;;;17.10;99.90;;;;;;5060780;28;20059;-73
2022/08/23 06:35:20;;;;;;;0.30;0.30;;;17.20;99.90;;;;;;5044796;28;19917;-73
2022/08/23 06:37:46;;;;;;;;;;;17.30;99.90;;;;;;5035674;28;20076;-73
2022/08/23 06:40:12;;;;;;;0.25;0.25;;;17.40;99.90;;;;;;5045858;28;19931;-73
2022/08/23 06:42:38;;;;;;;0.30;0.30;;;17.50;99.90;;;;;;5048648;28;20426;-73
2022/08/23 06:45:03;;;;;;;;;;;17.70;99.90;;;;;;5076577;28;20068;-73
2022/08/23 06:47:30;;;;;;;0.30;0.30;;;17.80;99.90;;;;;;5048326;28;20357;-73
2022/08/23 06:49:56;;;;;;;0.20;0.20;;;17.90;99.90;;;;;;5046931;28;20549;-73
2022/08/23 06:52:21;;;;;;;;;;;18.10;99.90;;;;;;5043831;28;20041;-73
2022/08/23 06:54:47;;;;;;;0.40;0.40;;;18.30;99.90;;;;;;5031420;28;19920;-73
2022/08/23 06:57:13;;;;;;;;;;;18.50;99.90;;;;;;5055020;28;20033;-73
2022/08/23 06:59:39;;;;;;;0.30;0.30;;;18.60;99.90;;;;;;5050998;28;20412;-73
2022/08/23 07:02:06;;;;;;;;;;;18.80;99.90;;;;;;5038596;28;20096;-73
2022/08/23 07:04:37;;;;;;;0.30;0.30;;;19.00;99.90;;;;;;5048646;28;19942;-73
2022/08/23 07:07:03;;;;;;;0.95;0.70;;;19.20;99.90;;;;;;5048311;28;20478;-73
2022/08/23 07:09:30;;;;;;;0.35;0.35;;;19.30;99.90;;;;;;5048743;28;20041;-72
2022/08/23 07:11:56;;;;;;;0.10;0.10;;;19.50;99.90;;;;;;5047524;28;20063;-72
2022/08/23 07:14:23;;;;;;;0.40;0.40;;;19.60;99.90;;;;;;5044939;28;20041;-72
2022/08/23 07:16:58;;;;;;;3.92;0.85;;;19.70;99.90;;;;;;5045840;28;20060;-73
2022/08/23 07:19:28;;;;;;;0.32;0.32;;;19.90;99.90;;;;;;5045687;28;20052;-73
2022/08/23 07:21:54;;;;;;;0.20;0.20;;;20.00;99.90;;;;;;5027421;28;20049;-71
2022/08/23 07:24:20;;;;;;;0.55;0.52;;;20.10;99.90;;;;;;5049084;28;20045;-71
2022/08/23 07:26:48;;;;;;;0.80;0.80;;;20.20;99.90;;;;;;5045659;28;20363;-72
2022/08/23 07:29:16;;;;;;;0.45;0.45;;;20.30;99.90;;;;;;5063691;28;20036;-72
2022/08/23 07:31:45;;;;;;;0.20;0.20;;;20.40;99.90;;;;;;5047077;28;20431;-72
2022/08/23 07:34:11;;;;;;;0.50;0.50;;;20.40;99.90;;;;;;5053898;28;20047;-72
2022/08/23 07:36:41;;;;;;;1.23;0.68;;;20.50;99.90;;;;;;5041434;28;20444;-72
2022/08/23 07:39:08;;;;;;;0.50;0.50;;;20.60;99.90;;;;;;5039389;28;20492;-72
2022/08/23 07:41:34;;;;;;;0.63;0.63;;;20.70;99.90;;;;;;5046411;28;20048;-71
2022/08/23 07:44:02;;;;;;;1.08;1.08;;;20.80;99.90;;;;;;5048950;28;20119;-71
2022/08/23 07:46:29;;;;;;;0.30;0.30;;;20.90;99.90;;;;;;5044830;28;20076;-71
2022/08/23 07:49:00;;;;;;;0.50;0.50;;;21.00;99.90;;;;;;5047577;28;20443;-72
2022/08/23 07:51:28;;;;;;;0.30;0.30;;;21.10;99.90;;;;;;5047002;28;20071;-71
2022/08/23 07:53:54;;;;;;;0.50;0.50;;;21.10;99.90;;;;;;5046919;28;20119;-71
2022/08/23 07:56:20;;;;;;;0.63;0.52;;;21.20;99.90;;;;;;5029859;28;20127;-72
2022/08/23 07:58:46;;;;;;;0.20;0.20;;;21.30;99.90;;;;;;5044474;28;20434;-72
2022/08/23 08:01:17;;;;;;;0.30;0.30;;;21.40;99.90;;;;;;5043570;28;20036;-72
2022/08/23 08:03:45;;;;;;;0.22;0.22;;;21.40;99.90;;;;;;5052479;28;20478;-71
2022/08/23 08:06:22;;;;;;;0.68;0.68;;;21.50;99.90;;;;;;5079137;28;20048;-71
2022/08/23 08:08:49;;;;;;;0.20;0.20;;;21.60;99.90;;;;;;5050026;28;20033;-71
2022/08/23 08:11:19;;;;;;;0.40;0.40;;;21.80;99.90;;;;;;5045743;28;20051;-71
2022/08/23 08:13:46;;;;;;;0.40;0.40;;;21.90;99.90;;;;;;5046673;28;20048;-70
2022/08/23 08:16:25;;;;;;;0.20;0.20;;;22.00;99.90;;;;;;5044432;28;20048;-71
2022/08/23 08:18:52;;;;;;;0.30;0.28;;;22.10;99.90;;;;;;5027246;28;20045;-71
2022/08/23 08:21:18;;;;;;;0.20;0.20;;;22.10;99.90;;;;;;5046086;28;20489;-71
2022/08/23 08:23:43;;;;;;;1.45;0.80;;;22.20;99.90;;;;;;5043651;28;20416;-72
2022/08/23 08:26:10;;;;;;;0.43;0.43;;;22.30;99.90;;;;;;5046073;28;20053;-71
2022/08/23 08:28:37;;;;;;;0.60;0.60;;;22.40;99.90;;;;;;5043035;28;20127;-71
2022/08/23 08:31:04;;;;;;;0.85;0.85;;;22.40;99.90;;;;;;5044756;28;20338;-70
2022/08/23 08:33:30;;;;;;;0.50;0.50;;;22.50;99.90;;;;;;5047833;28;20040;-70
2022/08/23 08:35:57;;;;;;;0.43;0.40;;;22.60;99.90;;;;;;5045913;28;20076;-70
2022/08/23 08:38:23;;;;;;;1.15;1.15;;;22.70;99.90;;;;;;5045742;28;20473;-70
2022/08/23 08:41:09;;;;;;;0.47;0.47;;;22.80;99.90;;;;;;5047488;28;20111;-71
2022/08/23 08:44:07;;;;;;;0.30;0.30;;;22.90;99.90;;;;;;5045467;28;20515;-72
2022/08/23 08:46:38;;;;;;;0.10;0.10;;;22.90;99.90;;;;;;5043348;28;20107;-71
2022/08/23 08:49:06;;;;;;;0.30;0.30;;;23.00;99.90;;;;;;5042698;28;20045;-71
2022/08/23 08:51:58;;;;;;;0.20;0.20;;;23.20;99.90;;;;;;5049325;28;20045;-71
2022/08/23 08:54:26;;;;;;;0.30;0.30;;;23.40;99.90;;;;;;5051125;28;20461;-70
2022/08/23 08:56:56;;;;;;;0.30;0.30;;;23.60;99.90;;;;;;5047049;28;20033;-71
2022/08/23 08:59:50;;;;;;;0.30;0.30;;;23.90;99.90;;;;;;5038024;28;20080;-72
2022/08/23 09:02:19;;;;;;;1.08;0.43;;;24.10;99.90;;;;;;5046853;28;20072;-72
2022/08/23 09:04:46;;;;;;;0.32;0.32;;;24.30;99.90;;;;;;5048788;28;20048;-72
2022/08/23 09:07:20;;;;;;;0.20;0.20;;;24.40;99.90;;;;;;5045412;28;20052;-71
2022/08/23 09:09:57;;;;;;;2.30;0.38;;;24.40;99.90;;;;;;5047107;28;20060;-72
2022/08/23 09:13:04;;;;;;;0.30;0.30;;;24.50;99.90;;;;;;5046329;28;20124;-71
2022/08/23 09:15:39;;;;;;;0.28;0.28;;;24.60;99.90;;;;;;5032663;28;20502;-72
2022/08/23 09:18:15;;;;;;;0.38;0.38;;;24.60;99.90;;;;;;5046603;28;20051;-71
2022/08/23 09:20:43;;;;;;;0.10;0.10;;;24.70;99.90;;;;;;5046197;28;20040;-72
2022/08/23 09:23:16;;;;;;;3.92;0.65;;;24.80;99.90;;;;;;5042444;28;20052;-71
2022/08/23 09:25:51;;;;;;;0.38;0.38;;;24.90;99.90;;;;;;5046496;28;20095;-71
2022/08/23 09:28:17;;;;;;;0.70;0.70;;;25.00;99.90;;;;;;5039796;28;20056;-71
2022/08/23 09:30:49;;;;;;;0.30;0.30;;;25.20;99.90;;;;;;5046733;28;20307;-70
2022/08/23 09:33:18;;;;;;;1.27;1.17;;;25.20;99.90;;;;;;5045203;28;20073;-71
2022/08/23 09:35:52;;;;;;;0.40;0.40;;;;;;;;;;5044881;28;20111;-72
2022/08/23 09:38:19;;;;;;;0.20;0.20;;;25.40;99.90;;;;;;5046510;28;20151;-70
2022/08/23 09:40:48;;;;;;;0.43;0.43;;;25.40;99.90;;;;;;5049052;28;20057;-71
2022/08/23 09:43:16;;;;;;;0.20;0.20;;;25.50;99.90;;;;;;5046374;28;20580;-71
2022/08/23 09:45:53;;;;;;;0.25;0.25;;;25.60;99.90;;;;;;5051140;28;20131;-71
2022/08/23 09:48:39;;;;;;;0.52;0.30;;;25.60;99.90;;;;;;5046498;28;20056;-71
2022/08/23 09:51:08;;;;;;;0.10;0.10;;;25.50;99.90;;;;;;5049009;28;20055;-71
2022/08/23 09:53:35;;;;;;;0.20;0.20;;;25.60;99.90;;;;;;5052029;28;20052;-72
2022/08/23 09:56:15;;;;;;;0.40;0.40;;;25.70;99.90;;;;;;5050938;28;20037;-72
2022/08/23 09:58:45;;;;;;;0.38;0.38;;;25.80;99.90;;;;;;5053578;28;20124;-71
2022/08/23 10:01:12;;;;;;;0.30;0.30;;;25.90;99.90;;;;;;5047165;28;20063;-72
2022/08/23 10:03:38;;;;;;;0.40;0.38;;;;;;;;;;5050440;28;20566;-72
2022/08/23 10:06:07;;;;;;;0.93;0.93;;;26.30;99.90;;;;;;5053507;28;20261;-70
2022/08/23 10:08:49;;;;;;;0.20;0.20;;;26.30;99.70;;;;;;5048900;28;20507;-72
2022/08/23 10:11:29;;;;;;;0.20;0.20;;;26.30;99.90;;;;;;5048698;28;20048;-72
2022/08/23 10:13:55;;;;;;;0.40;0.40;;;26.40;99.90;;;;;;5042092;28;20258;-71
2022/08/23 10:16:29;;;;;;;0.65;0.60;;;26.40;99.90;;;;;;5049171;28;20041;-71
2022/08/23 10:19:02;;;;;;;0.85;0.85;;;26.50;99.90;;;;;;5046641;28;20048;-71
2022/08/23 10:21:37;;;;;;;0.22;0.22;;;26.60;99.90;;;;;;5049986;28;20430;-71
2022/08/23 10:24:11;;;;;;;0.68;0.68;;;26.80;99.90;;;;;;5048009;28;20653;-72
2022/08/23 10:26:45;;;;;;;0.22;0.22;;;27.00;99.90;;;;;;5040899;28;20053;-72
2022/08/23 10:29:35;;;;;;;0.30;0.30;;;27.10;98.90;;;;;;5048751;28;20183;-71
2022/08/23 10:32:30;;;;;;;0.30;0.30;;;27.10;98.40;;;;;;5047300;28;20029;-72
2022/08/23 10:35:05;;;;;;;0.15;0.15;;;27.20;98.80;;;;;;5006451;28;20067;-73
2022/08/23 10:37:56;;;;;;;0.45;0.45;;;27.40;98.70;;;;;;5037159;28;20041;-70
2022/08/23 10:40:34;;;;;;;0.63;0.63;;;27.40;94.50;;;;;;5048271;28;20053;-70
2022/08/23 10:43:12;;;;;;;0.35;0.35;;;27.50;96.50;;;;;;5030053;28;20052;-71
2022/08/23 10:45:42;;;;;;;0.30;0.30;;;27.60;96.20;;;;;;5047445;28;20045;-72
2022/08/23 10:48:16;;;;;;;0.10;0.10;;;27.70;93.70;;;;;;5045882;28;20049;-72
2022/08/23 10:50:48;;;;;;;0.20;0.20;;;27.80;97.00;;;;;;5049171;28;20037;-70
2022/08/23 10:53:20;;;;;;;0.20;0.20;;;27.90;98.00;;;;;;5048810;28;20124;-71
2022/08/23 10:56:01;;;;;;;0.30;0.30;;;28.10;97.60;;;;;;5053685;28;20044;-71
2022/08/23 10:58:53;;;;;;;0.35;0.35;;;28.10;92.90;;;;;;5040765;28;20152;-72
2022/08/23 11:01:51;;;;;;;0.30;0.30;;;28.10;92.70;;;;;;5045869;28;20560;-71
2022/08/23 11:04:31;;;;;;;0.98;0.50;;;28.10;94.80;;;;;;5046534;28;20045;-72
2022/08/23 11:06:59;;;;;;;1.08;1.08;;;28.00;94.90;;;;;;5049207;28;20127;-71
2022/08/23 11:09:46;;;;;;;0.45;0.45;;;28.10;96.70;;;;;;5040508;28;20060;-71
2022/08/23 11:12:26;;;;;;;0.50;0.50;;;28.10;94.30;;;;;;5047850;28;20077;-71
2022/08/23 11:14:55;;;;;;;0.57;0.57;;;28.10;94.10;;;;;;5063002;28;20052;-71
2022/08/23 11:17:48;;;;;;;0.43;0.40;;;28.20;93.00;;;;;;5054083;28;20045;-71
2022/08/23 11:20:48;;;;;;;0.20;0.20;;;28.20;93.20;;;;;;5052488;28;20048;-71
2022/08/23 11:23:42;;;;;;;1.15;0.77;;;28.30;94.00;;;;;;5039797;28;20055;-72
2022/08/23 11:26:25;;;;;;;0.70;0.50;;;28.40;94.80;;;;;;5046518;28;20088;-72
2022/08/23 11:29:09;;;;;;;0.70;0.65;;;28.40;91.90;;;;;;5046924;28;20037;-71
2022/08/23 11:31:38;;;;;;;0.20;0.20;;;28.50;92.40;;;;;;5039808;28;20051;-72
2022/08/23 11:34:10;;;;;;;0.68;0.45;;;28.40;86.80;;;;;;5047910;28;20140;-71
2022/08/23 11:36:36;;;;;;;0.35;0.35;;;28.40;88.20;;;;;;5042197;28;20042;-71
2022/08/23 11:39:05;;;;;;;0.30;0.30;;;28.40;82.70;;;;;;5049984;28;20134;-70
2022/08/23 11:41:34;;;;;;;0.43;0.38;;;28.50;86.00;;;;;;5050769;28;20037;-71
2022/08/23 11:44:03;;;;;;;0.55;0.55;;;28.40;83.10;;;;;;5047180;28;20096;-71
2022/08/23 11:46:54;;;;;;;0.38;0.38;;;28.40;79.30;;;;;;5047091;28;20041;-72
2022/08/23 11:49:26;;;;;;;0.30;0.30;;;28.50;88.80;;;;;;5042283;28;20061;-71
2022/08/23 11:52:10;;;;;;;0.20;0.20;;;28.60;80.30;;;;;;5048438;28;20746;-71
2022/08/23 11:55:06;;;;;;;0.30;0.30;;;28.50;82.50;;;;;;5045213;28;20374;-71
2022/08/23 11:57:47;;;;;;;0.20;0.20;;;28.50;84.10;;;;;;5038321;28;20120;-71
2022/08/23 12:00:16;;;;;;;0.35;0.35;;;28.70;88.60;;;;;;5045868;28;20132;-71
2022/08/23 12:03:13;;;;;;;0.20;0.20;;;28.80;85.20;;;;;;5046435;28;20723;-71
2022/08/23 12:05:51;;;;;;;0.17;0.17;;;29.00;84.70;;;;;;5035875;28;20142;-72
2022/08/23 12:08:21;;;;;;;0.10;0.10;;;29.20;81.70;;;;;;5047192;28;20067;-71
2022/08/23 12:10:47;;;;;;;0.65;0.65;;;29.30;85.20;;;;;;5039916;28;20048;-72
2022/08/23 12:13:18;;;;;;;0.45;0.45;;;29.60;85.90;;;;;;5060498;28;20071;-72
2022/08/23 12:16:06;;;;;;;0.43;0.43;;;29.80;84.50;;;;;;5047638;28;20483;-72
2022/08/23 12:18:57;;;;;;;0.32;0.32;;;30.10;80.80;;;;;;5045968;28;20083;-73
2022/08/23 12:21:32;;;;;;;0.40;0.40;;;30.30;74.20;;;;;;5046962;28;20053;-71
2022/08/23 12:24:12;;;;;;;0.50;0.47;;;30.20;85.40;;;;;;5051328;28;20052;-71
2022/08/23 12:26:38;;;;;;;0.35;0.35;;;30.20;79.30;;;;;;5048257;28;20049;-72
2022/08/23 12:29:18;;;;;;;0.30;0.30;;;30.40;82.90;;;;;;5055671;28;20125;-72
2022/08/23 12:32:17;;;;;;;0.40;0.40;;;30.80;80.90;;;;;;5051391;28;20086;-73
2022/08/23 12:35:13;;;;;;;0.43;0.43;;;31.10;78.90;;;;;;5016723;28;20053;-71
2022/08/23 12:37:54;;;;;;;0.50;0.35;;;30.90;80.20;;;;;;5057439;28;20037;-71
2022/08/23 12:40:39;;;;;;;0.30;0.30;;;31.10;75.50;;;;;;5047449;28;20133;-71
2022/08/23 12:43:10;;;;;;;0.28;0.28;;;31.20;78.40;;;;;;5045081;28;20459;-71
2022/08/23 12:45:40;;;;;;;0.50;0.50;;;31.20;77.80;;;;;;5051435;28;20056;-71
2022/08/23 12:48:11;;;;;;;0.10;0.10;;;31.20;75.20;;;;;;5060151;28;20067;-71
2022/08/23 12:50:41;;;;;;;1.77;0.63;;;31.20;74.20;;;;;;5045841;28;20091;-71
2022/08/23 12:53:11;;;;;;;0.52;0.52;;;31.30;73.00;;;;;;5046161;28;20037;-72
2022/08/23 12:55:44;;;;;;;0.75;0.60;;;31.20;73.40;;;;;;5045342;28;20075;-73
2022/08/23 12:58:12;;;;;;;0.38;0.38;;;31.20;80.40;;;;;;5040685;28;20502;-72
2022/08/23 13:00:49;;;;;;;0.80;0.80;;;31.60;76.70;;;;;;5037950;28;20116;-71
2022/08/23 13:03:23;;;;;;;1.08;1.02;;;31.70;72.10;;;;;;5054016;28;20535;-71
2022/08/23 13:05:56;;;;;;;5.82;0.63;;;31.90;71.90;;;;;;5067302;28;20044;-71
2022/08/23 13:08:38;;;;;;;0.10;0.10;;;31.80;67.40;;;;;;5066253;28;20040;-71
2022/08/23 13:11:06;;;;;;;0.55;0.55;;;31.80;67.00;;;;;;5060669;28;20044;-71
2022/08/23 13:13:32;;;;;;;0.90;0.50;;;31.70;70.80;;;;;;5049427;28;20815;-70
2022/08/23 13:16:22;;;;;;;0.20;0.20;;;31.60;71.00;;;;;;5049813;28;20048;-71
2022/08/23 13:18:48;;;;;;;0.30;0.30;;;31.60;72.90;;;;;;5039478;28;20045;-71
2022/08/23 13:21:22;;;;;;;0.40;0.40;;;31.50;68.10;;;;;;5049851;28;20207;-72
2022/08/23 13:23:54;;;;;;;1.00;0.63;;;31.30;68.10;;;;;;5039649;28;20053;-71